createdAt,value
2023-02-08T00:01:29.245Z,37.47
2023-02-08T00:03:59.498Z,34.95
2023-02-08T00:06:28.167Z,36.13
2023-02-08T00:08:56.417Z,29.33
2023-02-08T00:11:24.211Z,30.92
2023-02-08T00:13:52.963Z,33.85
2023-02-08T00:16:21.166Z,44.10
2023-02-08T00:18:49.556Z,33.15
2023-02-08T00:21:18.159Z,30.70
2023-02-08T00:23:49.412Z,39.03
2023-02-08T00:26:17.922Z,35.10
2023-02-08T00:28:45.925Z,34.58
2023-02-08T00:31:17.328Z,35.70
2023-02-08T00:33:48.526Z,32.67
2023-02-08T00:36:19.299Z,31.57
2023-02-08T00:38:47.756Z,37.97
2023-02-08T00:41:16.842Z,37.85
2023-02-08T00:43:46.080Z,31.13
2023-02-08T00:46:14.039Z,36.15
2023-02-08T00:48:45.373Z,37.07
2023-02-08T00:51:15.932Z,36.10
2023-02-08T00:53:45.276Z,39.60
2023-02-08T00:56:14.541Z,31.45
2023-02-08T00:58:44.392Z,38.35
2023-02-08T01:01:13.571Z,31.38
2023-02-08T01:03:43.192Z,35.38
2023-02-08T01:06:18.078Z,30.73
2023-02-08T01:08:47.214Z,38.97
2023-02-08T01:11:22.604Z,36.22
2023-02-08T01:13:50.626Z,36.40
2023-02-08T01:16:44.512Z,36.38
2023-02-08T01:19:20.746Z,43.53
2023-02-08T01:21:50.359Z,31.00
2023-02-08T01:24:18.671Z,32.15
2023-02-08T01:26:46.795Z,40.67
2023-02-08T01:29:14.623Z,44.33
2023-02-08T01:31:43.509Z,30.90
2023-02-08T01:34:12.360Z,29.98
2023-02-08T01:36:40.404Z,33.40
2023-02-08T01:39:10.943Z,25.00
2023-02-08T01:41:44.684Z,37.67
2023-02-08T01:44:12.548Z,26.27
2023-02-08T01:46:45.484Z,37.40
2023-02-08T01:49:17.838Z,31.17
2023-02-08T01:52:07.225Z,40.17
2023-02-08T01:54:41.466Z,24.38
2023-02-08T01:57:10.933Z,30.77
2023-02-08T01:59:56.648Z,31.42
2023-02-08T02:02:25.154Z,35.60
2023-02-08T02:04:54.827Z,44.25
2023-02-08T02:07:23.281Z,39.33
2023-02-08T02:10:06.739Z,37.50
2023-02-08T02:12:36.825Z,34.55
2023-02-08T02:15:07.076Z,46.25
2023-02-08T02:17:38.128Z,36.58
2023-02-08T02:20:37.995Z,35.13
2023-02-08T02:23:26.252Z,22.80
2023-02-08T02:26:20.676Z,43.97
2023-02-08T02:29:12.078Z,44.38
2023-02-08T02:31:51.877Z,51.80
2023-02-08T02:34:46.671Z,44.67
2023-02-08T02:37:53.624Z,27.80
2023-02-08T02:40:35.324Z,41.38
2023-02-08T02:43:41.753Z,31.92
2023-02-08T02:46:32.230Z,32.78
2023-02-08T02:49:05.154Z,33.75
2023-02-08T02:51:43.035Z,44.50
2023-02-08T02:54:13.962Z,40.50
2023-02-08T02:56:46.581Z,41.75
2023-02-08T02:59:15.722Z,28.25
2023-02-08T03:01:44.632Z,38.15
2023-02-08T03:04:36.564Z,43.42
2023-02-08T03:07:17.715Z,40.35
2023-02-08T03:10:00.752Z,43.05
2023-02-08T03:12:50.285Z,42.67
2023-02-08T03:15:50.673Z,28.98
2023-02-08T03:18:18.490Z,44.80
2023-02-08T03:21:04.901Z,38.90
2023-02-08T03:23:42.293Z,29.55
2023-02-08T03:26:18.565Z,22.23
2023-02-08T03:29:36.035Z,46.53
2023-02-08T03:32:12.379Z,50.95
2023-02-08T03:34:54.638Z,43.53
2023-02-08T03:37:35.209Z,50.08
2023-02-08T03:40:28.125Z,20.17
2023-02-08T03:43:00.103Z,40.65
2023-02-08T03:45:33.976Z,44.35
2023-02-08T03:48:04.285Z,45.35
2023-02-08T03:50:35.540Z,47.13
2023-02-08T03:53:03.991Z,44.25
2023-02-08T03:55:34.063Z,48.40
2023-02-08T03:58:41.332Z,27.55
2023-02-08T04:01:18.355Z,51.10
2023-02-08T04:03:46.976Z,40.10
2023-02-08T04:06:15.873Z,50.20
2023-02-08T04:08:45.751Z,48.92
2023-02-08T04:11:16.213Z,44.33
2023-02-08T04:13:44.085Z,38.15
2023-02-08T04:16:16.545Z,47.40
2023-02-08T04:18:44.770Z,42.28
2023-02-08T04:21:12.766Z,37.60
2023-02-08T04:23:43.501Z,39.75
2023-02-08T04:26:11.440Z,48.97
2023-02-08T04:28:39.811Z,27.67
2023-02-08T04:31:08.178Z,50.50
2023-02-08T04:33:37.116Z,46.90
2023-02-08T04:36:05.263Z,50.53
2023-02-08T04:38:34.958Z,38.72
2023-02-08T04:41:02.975Z,46.33
2023-02-08T04:43:30.858Z,44.42
2023-02-08T04:46:00.026Z,46.85
2023-02-08T04:48:28.492Z,40.85
2023-02-08T04:50:57.627Z,41.90
2023-02-08T04:53:26.024Z,44.75
2023-02-08T04:55:54.563Z,42.63
2023-02-08T04:58:24.300Z,48.00
2023-02-08T05:00:52.713Z,43.08
2023-02-08T05:03:22.814Z,43.00
2023-02-08T05:06:00.570Z,33.15
2023-02-08T05:08:29.777Z,42.10
2023-02-08T05:10:59.647Z,45.88
2023-02-08T05:13:29.917Z,44.75
2023-02-08T05:15:58.602Z,53.88
2023-02-08T05:18:34.751Z,52.38
2023-02-08T05:23:36.172Z,40.42
2023-02-08T05:26:09.892Z,47.30
2023-02-08T05:28:38.959Z,24.38
2023-02-08T05:31:36.552Z,51.72
2023-02-08T05:34:05.596Z,37.47
2023-02-08T05:36:34.525Z,44.15
2023-02-08T05:39:12.187Z,49.83
2023-02-08T05:41:42.153Z,49.38
2023-02-08T05:44:14.816Z,53.00
2023-02-08T05:46:44.063Z,71.97
2023-02-08T05:49:12.388Z,57.03
2023-02-08T05:51:43.517Z,42.55
2023-02-08T05:54:13.094Z,38.88
2023-02-08T05:56:42.067Z,53.38
2023-02-08T05:59:11.779Z,57.85
2023-02-08T06:01:43.495Z,50.63
2023-02-08T06:04:15.155Z,35.08
2023-02-08T06:06:43.734Z,51.60
2023-02-08T06:09:14.576Z,58.45
2023-02-08T06:11:55.904Z,42.83
2023-02-08T06:14:25.375Z,32.20
2023-02-08T06:16:54.570Z,42.95
2023-02-08T06:19:28.320Z,39.83
2023-02-08T06:22:06.038Z,37.30
2023-02-08T06:24:36.559Z,32.92
2023-02-08T06:27:04.752Z,49.13
2023-02-08T06:29:36.801Z,41.05
2023-02-08T06:32:16.470Z,49.08
2023-02-08T06:34:45.304Z,41.78
2023-02-08T06:37:14.249Z,44.13
2023-02-08T06:39:43.399Z,41.95
2023-02-08T06:42:11.748Z,46.88
2023-02-08T06:44:51.413Z,42.28
2023-02-08T06:47:28.590Z,49.45
2023-02-08T06:49:59.883Z,42.30
2023-02-08T06:52:28.952Z,24.85
2023-02-08T06:55:00.420Z,33.42
2023-02-08T06:57:47.024Z,43.78
2023-02-08T07:00:18.490Z,44.92
2023-02-08T07:02:49.737Z,51.58
2023-02-08T07:07:49.119Z,41.30
2023-02-08T07:10:18.619Z,43.53
2023-02-08T07:12:48.068Z,42.03
2023-02-08T07:15:21.240Z,31.13
2023-02-08T07:17:50.536Z,41.05
2023-02-08T07:20:22.545Z,37.95
2023-02-08T07:22:56.619Z,29.98
2023-02-08T07:25:25.605Z,38.55
2023-02-08T07:27:54.192Z,35.92
2023-02-08T07:30:22.885Z,36.15
2023-02-08T07:32:52.505Z,38.67
2023-02-08T07:35:22.207Z,42.00
2023-02-08T07:37:52.867Z,44.45
2023-02-08T07:40:37.216Z,48.20
2023-02-08T07:46:14.834Z,42.90
2023-02-08T07:48:43.082Z,30.05
2023-02-08T07:51:12.717Z,34.10
2023-02-08T07:53:40.652Z,33.03
2023-02-08T07:56:10.569Z,30.25
2023-02-08T07:58:38.813Z,37.20
2023-02-08T08:01:21.068Z,24.67
2023-02-08T08:03:55.142Z,38.67
2023-02-08T08:06:23.198Z,33.35
2023-02-08T08:08:51.370Z,36.05
2023-02-08T08:11:20.240Z,42.10
2023-02-08T08:13:48.887Z,31.85
2023-02-08T08:16:16.854Z,36.65
2023-02-08T08:18:48.963Z,33.42
2023-02-08T08:21:16.930Z,32.75
2023-02-08T08:23:44.671Z,31.73
2023-02-08T08:26:21.504Z,29.33
2023-02-08T08:28:49.210Z,28.10
2023-02-08T08:31:21.714Z,23.17
2023-02-08T08:33:49.474Z,37.92
2023-02-08T08:36:17.431Z,40.35
2023-02-08T08:38:45.145Z,38.45
2023-02-08T08:41:15.573Z,37.20
2023-02-08T08:43:43.844Z,29.45
2023-02-08T08:46:12.106Z,37.70
2023-02-08T08:48:40.179Z,42.17
2023-02-08T08:51:08.278Z,35.63
2023-02-08T08:53:37.245Z,26.80
2023-02-08T08:56:06.091Z,33.90
2023-02-08T08:58:37.420Z,37.88
2023-02-08T09:01:07.622Z,37.33
2023-02-08T09:03:36.599Z,32.58
2023-02-08T09:06:05.765Z,37.75
2023-02-08T09:08:34.822Z,34.78
2023-02-08T09:11:10.478Z,35.92
2023-02-08T09:13:38.726Z,34.92
2023-02-08T09:16:12.967Z,34.45
2023-02-08T09:18:41.285Z,27.70
2023-02-08T09:21:22.969Z,29.65
2023-02-08T09:23:51.649Z,40.10
2023-02-08T09:26:20.134Z,28.48
2023-02-08T09:28:47.929Z,31.10
2023-02-08T09:31:18.480Z,30.60
2023-02-08T09:33:47.061Z,31.73
2023-02-08T09:36:15.259Z,32.00
2023-02-08T09:38:43.062Z,26.80
2023-02-08T09:41:42.940Z,27.60
2023-02-08T09:44:24.366Z,22.55
2023-02-08T09:47:16.562Z,24.70
2023-02-08T09:49:57.579Z,42.03
2023-02-08T09:52:47.797Z,35.17
2023-02-08T09:55:32.891Z,24.13
2023-02-08T09:58:01.538Z,32.20
2023-02-08T10:00:36.055Z,25.98
2023-02-08T10:03:03.952Z,21.25
2023-02-08T10:05:32.214Z,24.63
2023-02-08T10:08:00.365Z,32.30
2023-02-08T10:10:37.928Z,29.13
2023-02-08T10:13:40.669Z,23.58
2023-02-08T10:19:00.724Z,29.05
2023-02-08T10:21:56.490Z,26.88
2023-02-08T10:25:08.933Z,25.27
2023-02-08T10:28:19.261Z,25.52
2023-02-08T10:30:53.125Z,28.67
2023-02-08T10:33:33.065Z,25.50
2023-02-08T10:36:15.195Z,19.67
2023-02-08T10:38:46.687Z,27.33
2023-02-08T10:41:18.831Z,25.88
2023-02-08T10:43:51.741Z,30.40
2023-02-08T10:46:56.516Z,21.90
2023-02-08T10:49:27.673Z,21.52
2023-02-08T10:51:55.358Z,25.50
2023-02-08T10:54:23.059Z,27.27
2023-02-08T10:56:58.534Z,24.55
2023-02-08T10:59:57.099Z,18.40
2023-02-08T11:02:26.909Z,28.73
2023-02-08T11:05:21.611Z,26.55
2023-02-08T11:08:05.755Z,25.30
2023-02-08T11:10:33.931Z,14.70
2023-02-08T11:13:14.596Z,19.20
2023-02-08T11:15:49.287Z,24.08
2023-02-08T11:18:50.386Z,22.45
2023-02-08T11:21:26.433Z,19.52
2023-02-08T11:23:55.237Z,22.02
2023-02-08T11:26:39.437Z,27.55
2023-02-08T11:29:16.678Z,22.85
2023-02-08T11:32:02.711Z,21.30
2023-02-08T11:34:39.049Z,14.55
2023-02-08T11:37:21.086Z,25.10
2023-02-08T11:39:56.561Z,19.45
2023-02-08T11:42:36.275Z,21.88
2023-02-08T11:45:04.291Z,25.02
2023-02-08T11:47:33.455Z,19.15
2023-02-08T11:50:07.609Z,22.42
2023-02-08T11:52:40.916Z,18.48
2023-02-08T11:55:17.616Z,19.98
2023-02-08T11:58:04.797Z,16.00
2023-02-08T12:00:37.358Z,22.17
2023-02-08T12:03:15.914Z,19.42
2023-02-08T12:06:05.230Z,20.13
2023-02-08T12:08:44.674Z,18.05
2023-02-08T12:11:27.041Z,22.17
2023-02-08T12:14:15.997Z,26.50
2023-02-08T12:17:16.333Z,16.77
2023-02-08T12:20:17.672Z,13.82
2023-02-08T12:23:14.470Z,18.20
2023-02-08T12:26:10.205Z,19.88
2023-02-08T12:28:44.260Z,18.35
2023-02-08T12:31:39.473Z,16.15
2023-02-08T12:34:21.377Z,18.08
2023-02-08T12:37:22.554Z,17.75
2023-02-08T12:40:30.411Z,16.30
2023-02-08T12:43:00.821Z,20.10
2023-02-08T12:45:51.386Z,20.15
2023-02-08T12:48:50.054Z,16.42
2023-02-08T12:51:38.318Z,19.15
2023-02-08T12:54:11.726Z,15.27
2023-02-08T12:56:46.581Z,17.35
2023-02-08T12:59:42.615Z,15.50
2023-02-08T13:02:26.210Z,13.80
2023-02-08T13:04:54.565Z,15.60
2023-02-08T13:07:33.954Z,15.98
2023-02-08T13:10:26.726Z,17.13
2023-02-08T13:13:24.166Z,21.05
2023-02-08T13:16:09.583Z,23.77
2023-02-08T13:18:46.590Z,19.65
2023-02-08T13:21:16.278Z,19.00
2023-02-08T13:23:52.446Z,21.27
2023-02-08T13:26:32.062Z,16.10
2023-02-08T13:29:02.573Z,13.90
2023-02-08T13:31:41.608Z,18.08
2023-02-08T13:34:24.248Z,20.75
2023-02-08T13:37:03.643Z,18.65
2023-02-08T13:39:37.555Z,21.35
2023-02-08T13:42:06.656Z,19.02
2023-02-08T13:44:38.656Z,22.73
2023-02-08T13:47:06.956Z,15.93
2023-02-08T13:49:50.381Z,17.08
2023-02-08T13:52:51.208Z,27.25
2023-02-08T13:55:32.287Z,17.08
2023-02-08T13:58:01.861Z,17.00
2023-02-08T14:00:55.373Z,22.52
2023-02-08T14:03:28.021Z,21.77
2023-02-08T14:06:04.906Z,19.90
2023-02-08T14:08:40.283Z,17.98
2023-02-08T14:11:20.328Z,19.52
2023-02-08T14:13:49.319Z,21.55
2023-02-08T14:16:32.127Z,14.18
2023-02-08T14:19:01.431Z,18.60
2023-02-08T14:22:13.350Z,21.70
2023-02-08T14:24:48.335Z,22.52
2023-02-08T14:27:41.147Z,23.90
2023-02-08T14:30:19.497Z,23.75
2023-02-08T14:33:01.925Z,23.13
2023-02-08T14:35:30.380Z,20.02
2023-02-08T14:38:36.801Z,26.27
2023-02-08T14:41:04.594Z,26.25
2023-02-08T14:43:39.317Z,26.83
2023-02-08T14:46:37.768Z,24.20
2023-02-08T14:49:18.166Z,23.02
2023-02-08T14:51:49.430Z,23.85
2023-02-08T14:56:58.333Z,25.42
2023-02-08T14:59:27.849Z,31.85
2023-02-08T15:02:03.366Z,28.90
2023-02-08T15:04:31.243Z,27.45
2023-02-08T15:07:17.143Z,27.83
2023-02-08T15:09:44.895Z,29.27
2023-02-08T15:12:24.456Z,29.05
2023-02-08T15:14:54.605Z,34.40
2023-02-08T15:17:35.306Z,26.65
2023-02-08T15:20:06.317Z,29.77
2023-02-08T15:22:38.602Z,27.52
2023-02-08T15:25:23.168Z,27.60
2023-02-08T15:27:53.224Z,81.75
2023-02-08T15:30:28.781Z,82.45
2023-02-08T15:32:56.580Z,57.85
2023-02-08T15:35:26.045Z,50.15
2023-02-08T15:37:54.089Z,37.95
2023-02-08T15:40:27.249Z,45.80
2023-02-08T15:42:55.201Z,40.75
2023-02-08T15:45:24.710Z,33.90
2023-02-08T15:47:52.368Z,41.42
2023-02-08T15:50:21.364Z,39.22
2023-02-08T15:52:58.027Z,36.25
2023-02-08T15:55:26.543Z,50.65
2023-02-08T15:57:59.861Z,39.00
2023-02-08T16:00:32.300Z,38.40
2023-02-08T16:03:08.600Z,36.38
2023-02-08T16:05:36.439Z,40.35
2023-02-08T16:08:04.390Z,38.78
2023-02-08T16:10:53.266Z,35.78
2023-02-08T16:13:26.550Z,37.50
2023-02-08T16:16:14.083Z,32.35
2023-02-08T16:18:50.432Z,36.05
2023-02-08T16:21:27.121Z,31.05
2023-02-08T16:23:59.435Z,31.83
2023-02-08T16:26:29.244Z,29.60
2023-02-08T16:29:00.746Z,36.72
2023-02-08T16:31:30.317Z,33.47
2023-02-08T16:34:07.518Z,35.22
2023-02-08T16:36:44.477Z,40.75
2023-02-08T16:39:15.038Z,66.70
2023-02-08T16:42:06.443Z,123.80
2023-02-08T16:44:41.475Z,102.05
2023-02-08T16:47:26.571Z,63.22
2023-02-08T16:49:54.355Z,50.30
2023-02-08T16:52:22.059Z,46.13
2023-02-08T16:54:49.743Z,69.70
2023-02-08T16:57:17.306Z,75.70
2023-02-08T16:59:45.372Z,82.05
2023-02-08T17:02:13.502Z,92.63
2023-02-08T17:04:41.424Z,70.55
2023-02-08T17:07:17.902Z,84.07
2023-02-08T17:09:45.570Z,135.55
2023-02-08T17:12:21.830Z,96.78
2023-02-08T17:14:54.358Z,50.15
2023-02-08T17:17:23.744Z,71.43
2023-02-08T17:19:52.154Z,56.95
2023-02-08T17:22:20.512Z,62.90
2023-02-08T17:24:48.566Z,68.80
2023-02-08T17:27:16.643Z,50.35
2023-02-08T17:29:44.406Z,97.15
2023-02-08T17:32:12.858Z,80.07
2023-02-08T17:34:41.626Z,91.47
2023-02-08T17:37:11.050Z,76.57
2023-02-08T17:39:38.559Z,76.53
2023-02-08T17:42:06.508Z,69.88
2023-02-08T17:44:34.391Z,60.88
2023-02-08T17:47:02.168Z,75.97
2023-02-08T17:49:35.061Z,72.72
2023-02-08T17:52:02.994Z,54.45
2023-02-08T17:54:31.444Z,59.30
2023-02-08T17:57:01.700Z,55.08
2023-02-08T17:59:29.660Z,73.82
2023-02-08T18:01:58.977Z,59.60
2023-02-08T18:04:26.779Z,51.85
2023-02-08T18:06:54.398Z,47.88
2023-02-08T18:09:22.077Z,52.15
2023-02-08T18:11:50.187Z,57.13
2023-02-08T18:14:19.005Z,56.40
2023-02-08T18:16:47.515Z,62.78
2023-02-08T18:19:15.295Z,67.43
2023-02-08T18:21:43.618Z,68.18
2023-02-08T18:24:12.018Z,74.07
2023-02-08T18:26:39.643Z,67.32
2023-02-08T18:29:07.452Z,68.40
2023-02-08T18:31:35.600Z,49.75
2023-02-08T18:34:03.286Z,75.93
2023-02-08T18:36:30.974Z,62.72
2023-02-08T18:38:58.899Z,66.45
2023-02-08T18:41:28.588Z,73.45
2023-02-08T18:43:58.262Z,63.10
2023-02-08T18:46:27.087Z,70.30
2023-02-08T18:48:55.246Z,70.18
2023-02-08T18:51:23.722Z,69.43
2023-02-08T18:53:52.818Z,55.38
2023-02-08T18:56:23.215Z,64.32
2023-02-08T18:58:52.882Z,57.35
2023-02-08T19:01:23.918Z,68.90
2023-02-08T19:03:54.533Z,57.47
2023-02-08T19:06:24.899Z,48.05
2023-02-08T19:08:54.026Z,55.85
2023-02-08T19:11:22.544Z,68.70
2023-02-08T19:13:51.045Z,69.75
2023-02-08T19:16:19.104Z,71.47
2023-02-08T19:18:48.485Z,69.55
2023-02-08T19:21:17.439Z,60.13
2023-02-08T19:23:47.620Z,66.80
2023-02-08T19:26:18.565Z,58.88
2023-02-08T19:31:15.362Z,66.35
2023-02-08T19:33:44.737Z,64.60
2023-02-08T19:36:22.751Z,75.15
2023-02-08T19:38:50.643Z,66.72
2023-02-08T19:41:45.525Z,80.72
2023-02-08T19:44:15.109Z,85.35
2023-02-08T19:46:44.918Z,71.53
2023-02-08T19:49:12.906Z,67.50
2023-02-08T19:51:40.565Z,62.65
2023-02-08T19:54:10.299Z,77.47
2023-02-08T19:56:38.399Z,86.53
2023-02-08T19:59:06.949Z,68.05
2023-02-08T20:01:35.634Z,70.57
2023-02-08T20:04:05.926Z,65.15
2023-02-08T20:06:35.121Z,73.00
2023-02-08T20:09:06.992Z,78.20
2023-02-08T20:11:42.615Z,81.35
2023-02-08T20:14:18.831Z,79.13
2023-02-08T20:16:46.569Z,77.80
2023-02-08T20:19:14.498Z,70.03
2023-02-08T20:21:44.567Z,78.55
2023-02-08T20:24:13.176Z,93.50
2023-02-08T20:26:41.986Z,99.97
2023-02-08T20:29:09.833Z,80.90
2023-02-08T20:31:38.265Z,96.47
2023-02-08T20:34:07.519Z,93.45
2023-02-08T20:36:38.767Z,112.05
2023-02-08T20:39:07.301Z,107.13
2023-02-08T20:41:35.842Z,120.00
2023-02-08T20:44:03.493Z,87.25
2023-02-08T20:46:34.666Z,93.40
2023-02-08T20:49:03.054Z,96.65
2023-02-08T20:51:31.417Z,106.93
2023-02-08T20:53:59.952Z,104.78
2023-02-08T20:56:32.727Z,97.57
2023-02-08T20:59:05.194Z,92.30
2023-02-08T21:01:34.731Z,94.35
2023-02-08T21:04:02.545Z,85.45
2023-02-08T21:06:32.479Z,94.38
2023-02-08T21:09:03.029Z,62.25
2023-02-08T21:11:33.593Z,84.95
2023-02-08T21:14:01.342Z,93.50
2023-02-08T21:16:31.685Z,143.38
2023-02-08T21:18:59.740Z,109.30
2023-02-08T21:21:28.285Z,73.97
2023-02-08T21:23:57.939Z,71.90
2023-02-08T21:26:26.107Z,77.35
2023-02-08T21:28:55.334Z,72.00
2023-02-08T21:31:23.990Z,75.43
2023-02-08T21:33:52.145Z,80.30
2023-02-08T21:36:22.585Z,68.60
2023-02-08T21:38:50.491Z,75.30
2023-02-08T21:41:25.916Z,84.50
2023-02-08T21:43:54.911Z,64.70
2023-02-08T21:46:24.834Z,71.65
2023-02-08T21:49:11.531Z,75.88
2023-02-08T21:51:57.788Z,61.85
2023-02-08T21:54:41.556Z,49.35
2023-02-08T21:57:17.933Z,67.68
2023-02-08T21:59:49.383Z,61.22
2023-02-08T22:02:23.431Z,68.47
2023-02-08T22:05:01.088Z,58.78
2023-02-08T22:07:29.173Z,63.95
2023-02-08T22:09:57.456Z,67.30
2023-02-08T22:12:25.676Z,50.92
2023-02-08T22:14:57.756Z,45.97
2023-02-08T22:17:25.360Z,55.95
2023-02-08T22:19:52.983Z,76.80
2023-02-08T22:22:20.659Z,57.97
2023-02-08T22:24:48.267Z,56.80
2023-02-08T22:27:16.484Z,64.75
2023-02-08T22:29:44.079Z,66.65
2023-02-08T22:32:16.984Z,68.93
2023-02-08T22:34:45.856Z,60.47
2023-02-08T22:37:13.633Z,60.28
2023-02-08T22:39:41.430Z,75.07
2023-02-08T22:42:12.225Z,52.22
2023-02-08T22:44:40.804Z,67.28
2023-02-08T22:47:08.637Z,55.58
2023-02-08T22:49:36.537Z,54.20
2023-02-08T22:52:05.738Z,53.85
2023-02-08T22:54:33.416Z,58.72
2023-02-08T22:57:01.437Z,53.97
2023-02-08T22:59:29.108Z,47.65
2023-02-08T23:01:57.663Z,69.15
2023-02-08T23:04:25.335Z,109.13
2023-02-08T23:06:53.431Z,81.57
2023-02-08T23:09:21.242Z,68.82
2023-02-08T23:11:49.068Z,47.78
2023-02-08T23:14:16.832Z,70.68
2023-02-08T23:16:44.970Z,84.57
2023-02-08T23:19:16.301Z,68.07
2023-02-08T23:21:44.225Z,62.95
2023-02-08T23:24:11.879Z,59.28
2023-02-08T23:26:39.565Z,52.75
2023-02-08T23:29:07.379Z,58.60
2023-02-08T23:31:35.274Z,53.22
2023-02-08T23:34:03.117Z,55.85
2023-02-08T23:36:31.458Z,48.80
2023-02-08T23:38:59.034Z,62.53
2023-02-08T23:41:26.668Z,59.67
2023-02-08T23:43:54.399Z,63.35
2023-02-08T23:46:26.737Z,57.38
2023-02-08T23:48:54.507Z,62.42
2023-02-08T23:51:22.866Z,102.55
2023-02-08T23:53:50.966Z,78.53
2023-02-08T23:56:22.571Z,66.15
2023-02-08T23:58:51.126Z,53.40
